Time;durP1;ratioP1;P1;durP2;ratioP2;P2;SDS_P1;SDS_P2;PMS_P1;PMS_P2;Temp;Humidity;BMP_temperature;BMP_pressure;BME280_temperature;BME280_humidity;BME280_pressure;Samples;Min_cycle;Max_cycle;Signal;HPM_P1;HPM_P2
2021/12/15 00:01:57;;;;;;;84.13;35.77;;;;;;;2.36;100.00;101641.41;10516871;28;20198;-67
2021/12/15 00:07:03;;;;;;;80.83;35.80;;;;;;;2.49;100.00;101646.25;10546102;28;20290;-66
2021/12/15 00:12:07;;;;;;;79.87;35.33;;;;;;;2.53;100.00;101649.81;10545696;28;20207;-66
2021/12/15 00:17:10;;;;;;;78.43;33.83;;;;;;;2.60;100.00;101644.13;10545838;28;20879;-68
2021/12/15 00:22:15;;;;;;;79.43;34.63;;;;;;;2.63;100.00;101644.25;10545407;28;20184;-66
2021/12/15 00:27:19;;;;;;;79.07;36.10;;;;;;;2.82;100.00;101636.53;10545043;28;20246;-66
2021/12/15 00:32:22;;;;;;;73.63;33.10;;;;;;;2.88;100.00;101639.34;10536390;28;20196;-68
2021/12/15 00:37:26;;;;;;;69.77;30.60;;;;;;;3.04;100.00;101641.72;10505213;28;20204;-66
2021/12/15 00:42:30;;;;;;;75.37;33.07;;;;;;;3.00;100.00;101635.59;10505814;28;20510;-65
2021/12/15 00:47:33;;;;;;;73.20;31.00;;;;;;;3.16;100.00;101655.03;10504875;28;20227;-68
2021/12/15 00:52:40;;;;;;;69.53;31.00;;;;;;;3.20;100.00;101664.59;10505126;28;20637;-64
2021/12/15 00:57:44;;;;;;;68.53;31.23;;;;;;;3.25;100.00;101669.13;10505863;28;20200;-66
2021/12/15 01:02:47;;;;;;;65.93;27.40;;;;;;;3.32;100.00;101675.34;10504959;28;20228;-68
2021/12/15 01:07:53;;;;;;;62.33;27.30;;;;;;;3.36;100.00;101679.81;10504288;28;20556;-69
2021/12/15 01:23:39;;;;;;;52.63;23.40;;;;;;;3.57;100.00;101672.06;10504108;28;20199;-67
2021/12/15 01:28:43;;;;;;;48.40;22.40;;;;;;;3.68;100.00;101684.50;10503521;28;20311;-70
2021/12/15 01:33:47;;;;;;;51.67;22.23;;;;;;;3.75;100.00;101676.22;10503674;28;20410;-65
2021/12/15 01:38:51;;;;;;;53.67;23.27;;;;;;;3.75;100.00;101665.06;10503690;28;20202;-67
2021/12/15 01:49:22;;;;;;;49.37;22.07;;;;;;;3.73;100.00;101675.28;10502912;28;20242;-66
2021/12/15 01:54:30;;;;;;;45.87;21.23;;;;;;;3.79;100.00;101667.81;10502668;28;20615;-66
2021/12/15 01:59:33;;;;;;;50.43;21.80;;;;;;;3.83;100.00;101676.53;10503000;28;20288;-68
2021/12/15 02:04:38;;;;;;;48.73;22.57;;;;;;;3.80;100.00;101679.84;10502829;28;20206;-64
2021/12/15 02:15:33;;;;;;;46.77;22.93;;;;;;;3.80;100.00;101678.94;10501908;28;20578;-70
2021/12/15 02:20:44;;;;;;;47.23;21.47;;;;;;;3.81;100.00;101673.00;10501709;28;20224;-65
2021/12/15 02:25:49;;;;;;;45.97;21.27;;;;;;;3.80;100.00;101684.09;10501288;28;20690;-64
2021/12/15 02:30:56;;;;;;;46.97;21.93;;;;;;;3.80;100.00;101687.53;10500898;28;20759;-67
2021/12/15 02:41:23;;;;;;;44.33;20.90;;;;;;;3.77;100.00;101684.84;10500962;28;20220;-70
2021/12/15 02:46:28;;;;;;;49.73;21.27;;;;;;;3.81;100.00;101689.31;10501304;28;20496;-67
2021/12/15 02:51:33;;;;;;;52.23;23.87;;;;;;;3.85;100.00;101677.47;10500568;28;20680;-66
2021/12/15 02:56:37;;;;;;;43.17;20.53;;;;;;;3.87;100.00;101683.50;10500903;28;20220;-68
2021/12/15 03:01:56;;;;;;;38.97;17.87;;;;;;;3.87;100.00;101676.69;10500582;28;20218;-65
2021/12/15 03:07:10;;;;;;;47.63;19.97;;;;;;;3.83;100.00;101673.94;10500532;28;20295;-67
2021/12/15 03:17:35;;;;;;;41.47;18.07;;;;;;;3.85;100.00;101688.56;10500261;28;20276;-68
2021/12/15 03:22:39;;;;;;;34.60;16.83;;;;;;;3.92;100.00;101699.97;10500266;28;20671;-66
2021/12/15 03:33:33;;;;;;;39.47;18.97;;;;;;;3.96;100.00;101712.09;10500092;28;20306;-67
2021/12/15 03:38:39;;;;;;;38.33;18.67;;;;;;;4.00;100.00;101714.88;10503003;28;20234;-67
2021/12/15 03:43:43;;;;;;;44.07;19.33;;;;;;;4.01;100.00;101718.28;10508037;28;20550;-66
2021/12/15 03:48:46;;;;;;;43.87;19.07;;;;;;;3.94;100.00;101712.03;10507231;28;20315;-65
2021/12/15 03:53:52;;;;;;;42.50;17.77;;;;;;;3.95;100.00;101708.66;10507575;28;20216;-66
2021/12/15 03:58:56;;;;;;;40.97;17.67;;;;;;;3.92;100.00;101716.25;10507258;28;20234;-68
2021/12/15 04:04:01;;;;;;;39.40;15.87;;;;;;;3.96;100.00;101723.25;10507093;28;20227;-67
2021/12/15 04:09:12;;;;;;;40.77;17.77;;;;;;;3.94;100.00;101724.88;10506450;28;20273;-66
2021/12/15 04:14:21;;;;;;;39.77;17.90;;;;;;;3.94;100.00;101730.03;10506903;28;20570;-70
2021/12/15 04:19:25;;;;;;;41.93;17.17;;;;;;;3.97;100.00;101724.16;10506598;28;20230;-68
2021/12/15 04:24:30;;;;;;;34.97;17.07;;;;;;;3.96;100.00;101740.34;10506478;28;20238;-69
2021/12/15 04:29:34;;;;;;;40.10;17.63;;;;;;;3.95;100.00;101746.31;10505883;28;20228;-68
2021/12/15 04:34:37;;;;;;;35.37;17.23;;;;;;;3.96;100.00;101748.94;10506124;28;20212;-66
2021/12/15 04:39:42;;;;;;;38.63;19.43;;;;;;;3.94;100.00;101747.13;10505899;28;20224;-65
2021/12/15 04:44:46;;;;;;;36.90;17.10;;;;;;;3.96;100.00;101748.06;10505772;28;20603;-68
2021/12/15 04:49:52;;;;;;;39.53;18.00;;;;;;;3.94;100.00;101748.00;10504834;28;20220;-69
2021/12/15 04:54:59;;;;;;;38.40;17.93;;;;;;;3.94;100.00;101760.84;10505468;28;20219;-65
2021/12/15 05:00:05;;;;;;;39.27;17.47;;;;;;;3.88;100.00;101760.63;10505343;28;20226;-69
2021/12/15 05:05:09;;;;;;;35.00;16.53;;;;;;;3.87;100.00;101763.09;10505252;28;20228;-67
2021/12/15 05:10:14;;;;;;;43.10;16.87;;;;;;;3.93;100.00;101760.78;10504567;28;20550;-64
2021/12/15 05:15:18;;;;;;;35.27;17.13;;;;;;;3.88;100.00;101758.06;10504428;28;20223;-65
2021/12/15 05:20:23;;;;;;;35.60;16.83;;;;;;;3.86;100.00;101764.81;10504528;28;20307;-67
2021/12/15 05:25:27;;;;;;;38.17;16.97;;;;;;;3.92;100.00;101777.03;10503941;28;20239;-68
2021/12/15 05:30:31;;;;;;;35.27;16.83;;;;;;;3.90;100.00;101765.81;10503703;28;20220;-69
2021/12/15 05:35:36;;;;;;;37.07;17.37;;;;;;;3.88;100.00;101776.03;10503593;28;20212;-65
2021/12/15 05:40:41;;;;;;;38.23;16.03;;;;;;;3.92;100.00;101777.03;10503469;28;20251;-66
2021/12/15 05:45:45;;;;;;;30.53;15.50;;;;;;;3.91;100.00;101776.13;10503341;28;20250;-68
2021/12/15 05:50:51;;;;;;;36.50;15.57;;;;;;;3.95;100.00;101784.84;10178449;27;10000803;-70
2021/12/15 05:55:55;;;;;;;37.20;16.27;;;;;;;3.90;100.00;101794.91;10541296;28;20923;-69
2021/12/15 06:00:59;;;;;;;35.30;16.93;;;;;;;3.96;100.00;101795.16;10540492;28;20631;-67
2021/12/15 06:06:05;;;;;;;31.37;13.93;;;;;;;4.01;100.00;101806.50;10540989;28;20215;-66
2021/12/15 06:11:09;;;;;;;35.83;15.37;;;;;;;4.09;100.00;101806.81;10540544;28;20306;-68
2021/12/15 06:16:13;;;;;;;31.90;14.37;;;;;;;4.07;100.00;101811.00;10540730;28;20234;-67
2021/12/15 06:21:16;;;;;;;31.40;14.43;;;;;;;4.02;100.00;101815.94;10540389;28;20314;-66
2021/12/15 06:26:21;;;;;;;31.20;14.70;;;;;;;4.03;100.00;101799.72;10540083;28;20235;-67
2021/12/15 06:31:25;;;;;;;28.20;13.47;;;;;;;4.05;100.00;101794.66;10540043;28;20215;-66
2021/12/15 06:36:30;;;;;;;40.53;16.30;;;;;;;3.96;100.00;101815.72;10540003;28;20231;-67
2021/12/15 06:41:35;;;;;;;37.47;16.30;;;;;;;3.97;100.00;101816.59;10540021;28;20219;-67
2021/12/15 06:47:06;;;;;;;39.10;16.83;;;;;;;3.97;100.00;101825.16;10513006;28;20674;-68
2021/12/15 07:03:04;;;;;;;44.50;21.60;;;;;;;3.94;100.00;101848.16;10573809;27;20480;-68
2021/12/15 07:08:10;;;;;;;40.70;18.60;;;;;;;3.95;100.00;101854.19;10574714;28;20218;-68
2021/12/15 07:13:15;;;;;;;36.50;16.90;;;;;;;3.96;100.00;101861.06;10573976;28;20295;-67
2021/12/15 07:18:27;;;;;;;32.73;16.00;;;;;;;4.00;100.00;101858.69;10574676;28;20301;-68
2021/12/15 07:23:30;;;;;;;38.97;16.83;;;;;;;4.01;100.00;101865.56;10566176;28;20227;-68
2021/12/15 07:28:33;;;;;;;39.27;17.10;;;;;;;4.01;100.00;101860.44;10573189;28;20340;-68
2021/12/15 07:33:38;;;;;;;35.03;16.83;;;;;;;4.02;100.00;101861.31;10574404;28;20283;-67
2021/12/15 07:38:42;;;;;;;35.97;16.17;;;;;;;4.06;100.00;101873.44;10573898;28;20215;-69
2021/12/15 07:43:45;;;;;;;36.03;15.40;;;;;;;4.09;100.00;101861.59;10573724;28;20219;-67
2021/12/15 07:48:50;;;;;;;36.70;16.00;;;;;;;4.14;100.00;101847.25;10586235;28;20238;-66
2021/12/15 07:53:54;;;;;;;33.33;15.50;;;;;;;4.19;100.00;101837.16;10616042;28;20222;-66
2021/12/15 07:58:57;;;;;;;30.30;15.70;;;;;;;4.22;100.00;101850.13;10574454;28;20237;-67
2021/12/15 08:04:02;;;;;;;31.50;14.90;;;;;;;4.18;100.00;101853.38;10573032;28;20191;-67
2021/12/15 08:09:06;;;;;;;33.97;14.97;;;;;;;4.24;100.00;101858.78;10572865;28;20199;-67
2021/12/15 08:14:10;;;;;;;28.87;13.97;;;;;;;4.31;100.00;101871.06;10546161;28;20191;-67
2021/12/15 08:19:16;;;;;;;31.53;15.53;;;;;;;4.30;100.00;101870.16;10544355;28;20298;-69
2021/12/15 08:24:20;;;;;;;28.67;15.23;;;;;;;4.26;100.00;101878.56;10544667;28;20184;-66
2021/12/15 08:29:23;;;;;;;39.43;17.73;;;;;;;4.34;100.00;101884.00;10543488;28;20255;-67
2021/12/15 08:34:28;;;;;;;38.33;17.17;;;;;;;4.41;100.00;101889.47;10543968;28;20191;-67
2021/12/15 08:39:31;;;;;;;34.63;16.17;;;;;;;4.39;100.00;101892.78;10543673;28;20211;-66
2021/12/15 08:44:35;;;;;;;34.63;18.13;;;;;;;4.45;100.00;101899.03;10543470;28;20205;-67
2021/12/15 08:49:40;;;;;;;40.60;18.63;;;;;;;4.42;100.00;101898.03;10543055;28;20196;-68
2021/12/15 08:54:43;;;;;;;40.47;19.43;;;;;;;4.36;100.00;101897.81;10543241;28;20214;-66
2021/12/15 08:59:46;;;;;;;41.70;17.27;;;;;;;4.34;100.00;101896.88;10542423;28;20672;-72
2021/12/15 09:04:51;;;;;;;33.43;15.73;;;;;;;4.37;100.00;101884.13;10541996;28;20292;-66
2021/12/15 09:09:55;;;;;;;40.67;17.67;;;;;;;4.32;100.00;101876.25;10542019;28;20225;-68
2021/12/15 09:14:58;;;;;;;35.20;15.87;;;;;;;4.23;100.00;101885.28;10542317;28;20712;-66
2021/12/15 09:20:05;;;;;;;40.17;18.70;;;;;;;4.23;100.00;101875.88;10542203;28;20237;-67
2021/12/15 09:25:11;;;;;;;40.27;17.57;;;;;;;4.21;100.00;101859.53;10541005;28;20302;-65
2021/12/15 09:30:21;;;;;;;32.17;13.83;;;;;;;4.27;100.00;101870.06;10541285;28;20257;-66
2021/12/15 09:35:30;;;;;;;31.80;15.70;;;;;;;4.26;100.00;101862.28;10541642;28;20237;-70
2021/12/15 09:40:34;;;;;;;35.77;16.27;;;;;;;4.31;100.00;101868.47;10541013;28;20219;-72
2021/12/15 09:45:46;;;;;;;31.60;14.67;;;;;;;4.25;100.00;101869.09;10541123;28;20218;-66
2021/12/15 09:57:01;;;;;;;32.60;13.33;;;;;;;4.36;100.00;101862.72;10540316;28;20764;-70
2021/12/15 10:02:19;;;;;;;26.37;12.07;;;;;;;4.48;100.00;101855.47;10540739;28;20246;-67
2021/12/15 10:18:15;;;;;;;29.13;13.80;;;;;;;4.54;100.00;101839.38;10539457;28;20179;-68
2021/12/15 10:23:25;;;;;;;31.17;15.43;;;;;;;4.66;100.00;101827.88;10539031;28;20668;-67
2021/12/15 10:28:31;;;;;;;34.10;14.43;;;;;;;4.76;100.00;101821.38;10541128;28;20187;-68
2021/12/15 10:33:38;;;;;;;30.80;14.47;;;;;;;4.86;100.00;101825.16;10540335;28;20274;-67
2021/12/15 10:38:45;;;;;;;31.67;14.80;;;;;;;4.94;100.00;101834.88;10538983;28;20625;-70
2021/12/15 10:43:51;;;;;;;31.67;15.67;;;;;;;4.96;100.00;101829.81;10542800;28;20215;-67
2021/12/15 10:48:57;;;;;;;35.07;16.20;;;;;;;5.07;100.00;101833.66;10541711;28;20202;-67
2021/12/15 10:54:06;;;;;;;38.40;15.90;;;;;;;4.92;100.00;101823.66;10541770;28;20206;-70
2021/12/15 10:59:12;;;;;;;33.50;17.20;;;;;;;4.88;100.00;101820.94;10541430;28;20224;-66
2021/12/15 11:04:45;;;;;;;32.47;15.93;;;;;;;4.90;100.00;101819.31;10541373;28;20198;-65
2021/12/15 11:09:56;;;;;;;33.90;15.83;;;;;;;5.07;100.00;101813.94;10186957;27;10000154;-65
2021/12/15 11:15:04;;;;;;;38.97;16.87;;;;;;;4.99;100.00;101801.63;10538433;28;20184;-70
2021/12/15 11:20:13;;;;;;;32.63;15.97;;;;;;;5.03;100.00;101801.78;10534566;28;20514;-68
2021/12/15 11:25:27;;;;;;;33.90;16.37;;;;;;;5.13;100.00;101795.25;10496508;28;20199;-68
2021/12/15 11:30:34;;;;;;;34.07;16.93;;;;;;;5.15;100.00;101791.91;10522261;28;20209;-70
2021/12/15 11:35:41;;;;;;;33.47;15.97;;;;;;;5.21;100.00;101788.69;10537794;28;20200;-64
2021/12/15 11:40:51;;;;;;;36.27;16.23;;;;;;;5.25;100.00;101805.97;10537254;28;20215;-66
2021/12/15 11:45:54;;;;;;;31.27;14.83;;;;;;;5.33;100.00;101799.41;10539659;28;20234;-66
2021/12/15 11:51:03;;;;;;;44.23;18.37;;;;;;;5.38;100.00;101792.72;10545297;28;20274;-69
2021/12/15 11:56:20;;;;;;;37.70;17.67;;;;;;;5.34;100.00;101791.72;10547342;28;20286;-65
2021/12/15 12:01:41;;;;;;;38.83;16.10;;;;;;;5.40;100.00;101799.63;10548412;28;20227;-68
2021/12/15 12:06:47;;;;;;;34.43;15.50;;;;;;;5.45;100.00;101800.66;10548042;28;20197;-66
2021/12/15 12:11:58;;;;;;;47.23;18.00;;;;;;;5.46;100.00;101804.13;10547609;28;20528;-65
2021/12/15 12:17:02;;;;;;;36.53;15.83;;;;;;;5.47;100.00;101805.88;10547335;28;20191;-66
2021/12/15 12:22:05;;;;;;;41.17;17.10;;;;;;;5.50;100.00;101811.13;10547154;28;20235;-66
2021/12/15 12:27:10;;;;;;;43.47;17.83;;;;;;;5.54;100.00;101787.25;10547580;28;20647;-70
2021/12/15 12:32:14;;;;;;;40.17;16.70;;;;;;;5.58;100.00;101792.53;10546823;28;20543;-67
2021/12/15 12:37:18;;;;;;;36.17;16.73;;;;;;;5.60;100.00;101800.31;10547276;28;20195;-66
2021/12/15 12:42:32;;;;;;;38.00;17.53;;;;;;;5.67;100.00;101810.88;10545241;28;20211;-68
2021/12/15 12:47:41;;;;;;;34.83;17.33;;;;;;;5.70;100.00;101815.22;10544329;28;20201;-66
2021/12/15 13:03:35;;;;;;;34.20;15.37;;;;;;;5.81;100.00;101808.75;10545025;28;20218;-67
2021/12/15 13:08:41;;;;;;;38.00;17.23;;;;;;;5.83;100.00;101809.72;10542248;28;20207;-66
2021/12/15 13:13:57;;;;;;;33.60;15.50;;;;;;;5.90;100.00;101814.22;10541470;28;20225;-68
2021/12/15 13:19:05;;;;;;;34.23;14.87;;;;;;;5.88;100.00;101824.47;10542015;28;20294;-64
2021/12/15 13:29:56;;;;;;;38.27;15.97;;;;;;;5.96;100.00;101823.81;10544511;28;20221;-64
2021/12/15 13:34:59;;;;;;;33.60;14.73;;;;;;;6.05;100.00;101824.13;10544366;28;20237;-69
2021/12/15 13:40:52;;;;;;;36.90;16.37;;;;;;;5.93;100.00;101824.63;10544082;28;20211;-65
2021/12/15 13:45:57;;;;;;;37.60;16.17;;;;;;;6.00;100.00;101820.53;10543364;28;20215;-65
2021/12/15 13:51:01;;;;;;;46.27;17.90;;;;;;;6.00;100.00;101821.41;10543296;28;20721;-64
2021/12/15 13:56:05;;;;;;;42.63;16.97;;;;;;;5.90;100.00;101833.97;10543509;28;20237;-65
2021/12/15 14:01:13;;;;;;;44.43;18.63;;;;;;;5.88;100.00;101831.34;10543172;28;20239;-66
2021/12/15 14:06:19;;;;;;;46.90;20.40;;;;;;;5.88;100.00;101816.72;10543253;28;20226;-66
2021/12/15 14:11:26;;;;;;;63.40;28.30;;;;;;;5.81;100.00;101829.34;10542222;28;20223;-67
2021/12/15 14:16:45;;;;;;;78.30;34.93;;;;;;;5.92;100.00;101820.28;10542878;28;20727;-68
2021/12/15 14:21:50;;;;;;;47.47;20.67;;;;;;;5.79;100.00;101820.69;10542924;28;20225;-65
2021/12/15 14:26:53;;;;;;;43.07;19.67;;;;;;;5.77;100.00;101820.66;10542642;28;20298;-68
2021/12/15 14:32:00;;;;;;;45.80;19.50;;;;;;;5.72;100.00;101823.88;10541904;28;20215;-65
2021/12/15 14:37:08;;;;;;;47.03;20.70;;;;;;;5.82;100.00;101821.69;10542314;28;20241;-65
2021/12/15 14:42:14;;;;;;;50.40;20.80;;;;;;;5.75;100.00;101819.72;10541921;28;20219;-69
2021/12/15 14:47:21;;;;;;;48.60;20.67;;;;;;;5.74;100.00;101811.94;10541809;28;20215;-68
2021/12/15 14:52:27;;;;;;;44.77;21.63;;;;;;;5.66;100.00;101801.38;10188032;27;10000450;-66
2021/12/15 14:57:33;;;;;;;49.03;23.00;;;;;;;5.72;100.00;101811.00;10538845;28;20219;-68
2021/12/15 15:02:41;;;;;;;39.83;21.77;;;;;;;5.71;100.00;101794.66;10538060;28;20239;-67
2021/12/15 15:07:49;;;;;;;49.47;21.07;;;;;;;5.74;100.00;101792.22;10538343;28;20241;-67
2021/12/15 15:12:53;;;;;;;43.50;19.33;;;;;;;5.75;100.00;101782.78;10538204;28;20219;-69
2021/12/15 15:18:05;;;;;;;45.73;21.07;;;;;;;5.87;100.00;101780.63;10538195;28;20230;-68
2021/12/15 15:23:12;;;;;;;39.63;20.33;;;;;;;5.78;100.00;101763.13;10542863;28;20218;-69
2021/12/15 15:28:19;;;;;;;54.40;23.80;;;;;;;5.77;100.00;101771.72;10546232;28;20226;-70
2021/12/15 15:33:26;;;;;;;43.33;22.07;;;;;;;5.82;100.00;101783.06;10545840;28;20293;-67
2021/12/15 15:38:33;;;;;;;46.50;22.40;;;;;;;5.78;100.00;101773.44;10545727;28;20219;-66
2021/12/15 15:43:40;;;;;;;47.90;24.03;;;;;;;5.82;100.00;101771.84;10545702;28;20226;-65
2021/12/15 15:48:45;;;;;;;45.47;23.20;;;;;;;5.85;100.00;101780.56;10545328;28;20260;-67
2021/12/15 15:53:51;;;;;;;51.00;23.17;;;;;;;5.96;100.00;101786.06;10561576;28;20215;-68
2021/12/15 15:58:59;;;;;;;45.10;23.60;;;;;;;5.97;100.00;101800.69;10548597;28;20219;-66
2021/12/15 16:04:11;;;;;;;48.70;23.47;;;;;;;6.00;100.00;101799.91;10547108;28;20231;-70
2021/12/15 16:09:21;;;;;;;49.10;22.53;;;;;;;6.05;100.00;101806.97;10544883;28;20298;-67
2021/12/15 16:14:26;;;;;;;165.70;86.33;;;;;;;6.02;100.00;101801.72;10543942;28;20221;-72
2021/12/15 16:19:37;;;;;;;50.27;22.80;;;;;;;6.11;100.00;101796.84;10544692;28;20225;-66
2021/12/15 16:24:41;;;;;;;46.87;20.87;;;;;;;6.19;100.00;101800.53;10544481;28;20215;-68
2021/12/15 16:29:44;;;;;;;58.10;24.80;;;;;;;6.16;100.00;101789.28;10544459;28;20219;-68
2021/12/15 16:34:49;;;;;;;53.93;24.37;;;;;;;6.13;100.00;101786.56;10543700;28;20278;-66
2021/12/15 16:39:55;;;;;;;59.83;23.43;;;;;;;6.08;100.00;101799.31;10543874;28;20206;-69
2021/12/15 16:45:00;;;;;;;50.70;22.73;;;;;;;6.17;100.00;101809.03;10544107;28;20219;-66
2021/12/15 16:50:08;;;;;;;51.47;19.63;;;;;;;6.11;100.00;101826.91;10546009;28;20183;-67
2021/12/15 16:55:15;;;;;;;56.47;24.27;;;;;;;6.12;100.00;101826.06;10545206;28;20205;-67
2021/12/15 17:00:30;;;;;;;54.43;22.90;;;;;;;6.09;100.00;101819.09;10543262;28;20330;-64
2021/12/15 17:05:37;;;;;;;56.83;23.07;;;;;;;6.06;100.00;101820.75;10542826;28;20294;-68
2021/12/15 17:10:44;;;;;;;59.90;24.90;;;;;;;6.21;100.00;101829.84;10542673;28;20282;-67
2021/12/15 17:15:55;;;;;;;61.57;23.77;;;;;;;6.22;100.00;101829.00;10542897;28;20186;-68
2021/12/15 17:21:02;;;;;;;54.07;23.33;;;;;;;6.27;100.00;101811.06;10542408;28;20226;-68
2021/12/15 17:26:08;;;;;;;57.10;28.07;;;;;;;6.29;100.00;101814.56;10542239;28;20218;-75
2021/12/15 17:31:15;;;;;;;56.70;25.13;;;;;;;6.30;100.00;101819.78;10542368;28;20205;-65
2021/12/15 17:36:25;;;;;;;56.57;22.83;;;;;;;6.35;100.00;101809.63;10541606;28;20200;-67
2021/12/15 17:41:32;;;;;;;55.33;23.83;;;;;;;6.31;100.00;101808.66;10541570;28;20251;-66
2021/12/15 17:46:39;;;;;;;51.57;22.57;;;;;;;6.35;100.00;101792.41;10540447;28;20692;-68
2021/12/15 17:51:57;;;;;;;53.37;22.30;;;;;;;6.40;100.00;101796.00;10558131;28;20307;-66
2021/12/15 17:57:03;;;;;;;52.23;23.53;;;;;;;6.38;100.00;101800.28;10583255;28;20222;-69
2021/12/15 18:02:07;;;;;;;61.30;25.33;;;;;;;6.40;100.00;101798.59;10582647;28;20345;-69
2021/12/15 18:07:12;;;;;;;64.63;26.10;;;;;;;6.27;100.00;101798.19;10582552;28;20214;-67
2021/12/15 18:12:20;;;;;;;56.27;24.33;;;;;;;6.23;100.00;101793.78;10582819;28;20559;-68
2021/12/15 18:17:24;;;;;;;63.10;22.17;;;;;;;6.33;100.00;101788.94;10582336;28;20229;-68
2021/12/15 18:22:28;;;;;;;58.77;23.13;;;;;;;6.32;100.00;101776.00;10582384;28;20874;-66
2021/12/15 18:27:32;;;;;;;57.17;21.57;;;;;;;6.29;100.00;101773.31;10582032;28;20221;-66
2021/12/15 18:32:35;;;;;;;66.67;24.90;;;;;;;6.22;100.00;101772.28;10581606;28;20260;-66
2021/12/15 18:37:41;;;;;;;65.17;26.70;;;;;;;6.32;100.00;101766.56;10582544;28;20244;-68
2021/12/15 18:43:06;;;;;;;60.87;23.93;;;;;;;6.26;100.00;101762.94;10581922;28;20236;-65
2021/12/15 18:48:09;;;;;;;65.50;24.33;;;;;;;6.38;100.00;101773.59;10581287;28;20211;-70
2021/12/15 18:53:16;;;;;;;63.60;26.23;;;;;;;6.30;100.00;101775.94;10552193;28;20229;-66
2021/12/15 18:58:19;;;;;;;55.57;22.43;;;;;;;6.42;100.00;101778.03;10538811;28;20219;-69
2021/12/15 19:03:23;;;;;;;58.50;23.53;;;;;;;6.42;100.00;101775.47;10539051;28;20600;-67
2021/12/15 19:08:27;;;;;;;61.80;24.53;;;;;;;6.40;100.00;101779.69;10538536;28;20226;-68
2021/12/15 19:13:31;;;;;;;82.40;36.27;;;;;;;6.45;100.00;101779.00;10538365;28;20728;-70
2021/12/15 19:18:37;;;;;;;53.87;22.63;;;;;;;6.49;100.00;101787.69;10538761;28;20726;-68
2021/12/15 19:23:42;;;;;;;54.97;24.87;;;;;;;6.50;100.00;101781.69;10538316;28;20229;-70
2021/12/15 19:28:48;;;;;;;61.67;24.67;;;;;;;6.51;100.00;101793.75;10538531;28;20211;-66
2021/12/15 19:33:55;;;;;;;59.97;25.77;;;;;;;6.59;100.00;101805.19;10538665;28;20223;-69
2021/12/15 19:39:02;;;;;;;60.57;26.03;;;;;;;6.58;100.00;101799.16;10538168;28;20585;-66
2021/12/15 19:44:07;;;;;;;59.83;24.80;;;;;;;6.61;100.00;101806.97;10537246;28;20238;-66
2021/12/15 19:49:11;;;;;;;62.97;25.33;;;;;;;6.67;100.00;101804.56;10538317;28;20212;-64
2021/12/15 19:54:16;;;;;;;60.33;24.77;;;;;;;6.62;100.00;101795.84;10537032;28;20219;-64
2021/12/15 19:59:20;;;;;;;59.20;24.77;;;;;;;6.65;100.00;101807.94;10537427;28;20231;-66
2021/12/15 20:04:28;;;;;;;70.73;28.60;;;;;;;6.64;100.00;101804.47;10537423;28;20230;-68
2021/12/15 20:09:34;;;;;;;64.47;27.23;;;;;;;6.61;100.00;101781.16;10542723;28;20219;-65
2021/12/15 20:14:37;;;;;;;62.87;24.23;;;;;;;6.60;100.00;101776.84;10545064;28;20353;-68
2021/12/15 20:19:41;;;;;;;67.00;27.20;;;;;;;6.60;100.00;101792.34;10544693;28;20222;-70
2021/12/15 20:24:49;;;;;;;71.17;28.33;;;;;;;6.52;100.00;101783.47;10544258;28;20230;-66
2021/12/15 20:29:55;;;;;;;63.33;28.63;;;;;;;6.58;100.00;101782.78;10544555;28;20582;-66
2021/12/15 20:34:59;;;;;;;74.20;29.03;;;;;;;6.58;100.00;101786.25;10544522;28;20676;-67
2021/12/15 20:40:08;;;;;;;71.70;29.07;;;;;;;6.50;100.00;101782.59;10543927;28;20219;-65
2021/12/15 20:45:15;;;;;;;64.73;27.97;;;;;;;6.46;100.00;101780.72;10501942;28;20226;-65
2021/12/15 20:50:20;;;;;;;76.83;30.47;;;;;;;6.51;100.00;101774.00;10510860;28;20680;-68
2021/12/15 20:55:26;;;;;;;74.10;27.67;;;;;;;6.52;100.00;101778.31;10585640;28;20569;-66
2021/12/15 21:00:35;;;;;;;73.27;29.43;;;;;;;6.60;100.00;101781.13;10585630;28;20230;-68
2021/12/15 21:05:43;;;;;;;65.67;26.83;;;;;;;6.63;100.00;101783.78;10585492;27;20236;-67
2021/12/15 21:10:51;;;;;;;67.70;27.73;;;;;;;6.62;100.00;101780.34;10585443;28;20210;-68
2021/12/15 21:15:55;;;;;;;71.33;27.40;;;;;;;6.64;100.00;101776.09;10584818;28;20279;-67
2021/12/15 21:20:59;;;;;;;62.57;26.10;;;;;;;6.58;100.00;101782.78;10551491;28;20211;-67
2021/12/15 21:26:06;;;;;;;62.73;26.27;;;;;;;6.64;100.00;101780.41;10542617;28;20302;-66
2021/12/15 21:31:10;;;;;;;65.67;24.53;;;;;;;6.63;100.00;101774.34;10542349;28;20212;-66
2021/12/15 21:36:14;;;;;;;66.37;29.17;;;;;;;6.61;100.00;101775.16;10542083;28;20219;-67
2021/12/15 21:41:19;;;;;;;63.17;27.63;;;;;;;6.61;100.00;101768.28;10541722;28;20709;-68
2021/12/15 21:46:23;;;;;;;73.47;29.77;;;;;;;6.72;100.00;101769.47;10542075;28;20239;-67
2021/12/15 21:51:26;;;;;;;66.47;26.83;;;;;;;6.70;100.00;101762.50;10541346;28;20299;-68
2021/12/15 21:56:31;;;;;;;60.53;25.27;;;;;;;6.74;100.00;101761.75;10553351;28;20224;-68
2021/12/15 22:01:35;;;;;;;59.93;24.63;;;;;;;6.83;100.00;101768.03;10582875;28;20235;-68
2021/12/15 22:06:39;;;;;;;66.53;25.80;;;;;;;6.69;100.00;101761.66;10539450;28;20641;-66
2021/12/15 22:11:45;;;;;;;61.00;27.80;;;;;;;6.66;100.00;101755.53;10540777;28;20196;-67
2021/12/15 22:16:48;;;;;;;67.50;25.40;;;;;;;6.75;100.00;101772.13;10540762;28;20198;-67
2021/12/15 22:21:55;;;;;;;68.03;26.83;;;;;;;6.67;100.00;101771.03;10540576;28;20230;-67
2021/12/15 22:27:02;;;;;;;62.83;26.03;;;;;;;6.67;100.00;101770.16;10540324;28;20196;-68
2021/12/15 22:32:10;;;;;;;56.43;24.00;;;;;;;6.74;100.00;101759.19;10539483;28;20870;-67
2021/12/15 22:37:15;;;;;;;65.77;25.27;;;;;;;6.70;100.00;101760.81;10540230;28;20198;-69
2021/12/15 22:42:20;;;;;;;59.57;24.73;;;;;;;6.71;100.00;101757.38;10539774;28;20278;-66
2021/12/15 22:47:23;;;;;;;55.83;22.23;;;;;;;6.69;100.00;101745.28;10539742;28;20930;-67
2021/12/15 22:52:27;;;;;;;137.17;64.10;;;;;;;6.71;100.00;101744.47;10561959;28;20186;-67
2021/12/15 22:57:32;;;;;;;55.87;21.90;;;;;;;6.79;100.00;101755.91;10581548;28;20277;-67
2021/12/15 23:02:36;;;;;;;57.80;22.50;;;;;;;6.73;100.00;101757.44;10581144;28;20309;-65
2021/12/15 23:07:40;;;;;;;62.27;23.90;;;;;;;6.67;100.00;101755.56;10582454;28;20224;-66
2021/12/15 23:12:45;;;;;;;56.10;22.70;;;;;;;6.69;100.00;101758.19;10584212;28;20278;-68
2021/12/15 23:17:54;;;;;;;55.50;23.23;;;;;;;6.76;100.00;101760.97;10584273;28;20201;-67
2021/12/15 23:23:01;;;;;;;62.27;24.57;;;;;;;6.75;100.00;101756.63;10584437;28;20297;-66
2021/12/15 23:28:09;;;;;;;59.40;23.93;;;;;;;6.79;100.00;101752.44;10584174;28;20210;-65
2021/12/15 23:33:12;;;;;;;53.47;22.47;;;;;;;6.83;100.00;101762.88;10584004;28;20488;-68
2021/12/15 23:38:24;;;;;;;59.10;25.10;;;;;;;6.79;100.00;101758.47;10584193;28;20302;-67
2021/12/15 23:43:44;;;;;;;54.63;22.83;;;;;;;6.89;100.00;101757.00;10588046;28;20240;-68
